Aérodrome :
LOGIN :

S'inscrire | Disclaimer

   EN    FR    IT 

 










Légende :    VFR   VFR Marginal   IFR   IFR Intensif   IFR Très Intensif
Visi : 
Plafond : 
>= 8 km
>= 3000ft
5 à 8 km
1000 à 3000 ft
1500m à 5 km
500 à 1000 ft
800 à 1500m
200 à 500 ft
< 800m
< 200 ft
Symboles :   Orages  Brouillard  Fortes neiges  Fortes précipitations  Vent > 20 kt
SIGMETs :   Divers  Orages  Givrage  Turbulence  Onde Orograph.  Cendres Volcan.






- Altitude de l'aérodrome : 1300 ft
- Code IATA : LIG


LFBL - Limoges

DERNIER METAR :
  • 281300Z AUTO 05011KT 020V090 CAVOK 25/08 Q1025 NOSIG

METARs EXPIRÉS :
  • 281230Z AUTO 04012KT 020V080 CAVOK 24/07 Q1025 NOSIG
  • 281200Z AUTO 06011KT CAVOK 24/06 Q1025 NOSIG
  • 281130Z AUTO 06010KT 010V090 CAVOK 24/05 Q1026 NOSIG
  • 281100Z AUTO 08010KT 040V110 CAVOK 23/04 Q1026 NOSIG
  • 281030Z AUTO 06009KT 030V100 CAVOK 23/06 Q1026 NOSIG

TAF TAF LFBL
Valide du 28 à 12h jusqu'au 29 à 12h UTC


281100Z 2812/2912 06012KT CAVOK
ATIS : +33 5 55 48 40 37



MET'MAP, la Météo Aéronautique d'un coup d'oeil ! - Copyright ORBIFLY Décembre 2007 - Disclaimer

ORBIFLY MET'MAP TEAM :

Programmation & Développement : Alexandra Zaïnal
Sur une idée originale de : Baudouin d'Aumeries
Assistance à la programmation : Marc-Olivier Méhu
Soutien technique & logistique : Manuel Goepfert

Contact : metmap@orbifly.com




SOURCES & CREDITS :

   NOAA